createdAt,value
2017-09-30T00:01:37.149Z,23.70
2017-09-30T00:03:48.447Z,23.68
2017-09-30T00:05:55.161Z,23.60
2017-09-30T00:08:01.438Z,23.58
2017-09-30T00:10:09.365Z,23.59
2017-09-30T00:12:20.386Z,23.65
2017-09-30T00:14:27.878Z,23.71
2017-09-30T00:16:35.787Z,23.73
2017-09-30T00:18:42.018Z,23.69
2017-09-30T00:20:47.899Z,23.63
2017-09-30T00:22:54.056Z,23.73
2017-09-30T00:25:00.200Z,23.79
2017-09-30T00:27:06.951Z,23.76
2017-09-30T00:29:14.125Z,23.79
2017-09-30T00:31:20.082Z,23.66
2017-09-30T00:33:26.994Z,23.73
2017-09-30T00:35:37.233Z,23.64
2017-09-30T00:37:45.426Z,23.68
2017-09-30T00:39:55.036Z,23.66
2017-09-30T00:42:02.908Z,23.55
2017-09-30T00:44:09.424Z,23.69
2017-09-30T00:46:16.068Z,23.77
2017-09-30T00:48:24.942Z,23.70
2017-09-30T00:50:33.008Z,23.71
2017-09-30T00:52:41.758Z,23.81
2017-09-30T00:54:47.919Z,23.90
2017-09-30T00:56:56.204Z,23.71
2017-09-30T00:59:04.291Z,23.62
2017-09-30T01:01:12.652Z,23.68
2017-09-30T01:03:19.961Z,23.60
2017-09-30T01:05:26.865Z,23.52
2017-09-30T01:07:42.071Z,23.69
2017-09-30T01:09:48.412Z,23.68
2017-09-30T01:12:08.632Z,23.66
2017-09-30T01:14:17.323Z,23.64
2017-09-30T01:16:24.323Z,23.64
2017-09-30T01:18:33.169Z,23.69
2017-09-30T01:20:43.859Z,23.74
2017-09-30T01:22:49.552Z,23.62
2017-09-30T01:24:55.636Z,23.56
2017-09-30T01:27:01.819Z,23.48
2017-09-30T01:31:40.501Z,23.45
2017-09-30T01:33:49.390Z,23.46
2017-09-30T01:35:55.757Z,23.50
2017-09-30T01:38:03.456Z,23.45
2017-09-30T01:40:09.502Z,23.47
2017-09-30T01:42:15.401Z,23.46
2017-09-30T01:44:23.755Z,23.40
2017-09-30T01:46:30.287Z,23.40
2017-09-30T01:48:39.568Z,23.43
2017-09-30T01:50:45.179Z,23.37
2017-09-30T01:52:51.067Z,23.28
2017-09-30T01:54:56.758Z,23.27
2017-09-30T01:57:02.672Z,23.34
2017-09-30T01:59:08.847Z,23.31
2017-09-30T02:01:18.979Z,23.33
2017-09-30T02:03:25.382Z,23.26
2017-09-30T02:05:33.202Z,23.34
2017-09-30T02:07:39.710Z,23.37
2017-09-30T02:09:46.993Z,23.32
2017-09-30T02:12:09.099Z,23.33
2017-09-30T02:14:18.749Z,23.38
2017-09-30T02:16:24.120Z,23.58
2017-09-30T02:18:32.958Z,23.59
2017-09-30T02:20:40.065Z,23.41
2017-09-30T02:22:46.254Z,23.42
2017-09-30T02:24:51.763Z,23.35
2017-09-30T02:26:59.409Z,23.37
2017-09-30T02:29:05.687Z,23.30
2017-09-30T02:31:13.715Z,23.35
2017-09-30T02:33:21.038Z,23.41
2017-09-30T02:35:28.237Z,23.30
2017-09-30T02:37:36.613Z,23.34
2017-09-30T02:39:43.435Z,23.46
2017-09-30T02:41:49.490Z,23.32
2017-09-30T02:43:55.791Z,23.35
2017-09-30T02:46:01.657Z,23.32
2017-09-30T02:48:08.260Z,23.36
2017-09-30T02:50:15.184Z,23.30
2017-09-30T02:52:23.065Z,23.36
2017-09-30T02:54:29.331Z,23.32
2017-09-30T02:56:38.443Z,23.41
2017-09-30T02:58:47.751Z,23.44
2017-09-30T03:00:57.188Z,23.54
2017-09-30T03:03:03.032Z,23.55
2017-09-30T03:05:09.676Z,23.51
2017-09-30T03:07:15.816Z,23.47
2017-09-30T03:09:21.970Z,23.40
2017-09-30T03:11:30.153Z,23.45
2017-09-30T03:13:36.876Z,23.37
2017-09-30T03:15:42.756Z,23.38
2017-09-30T03:17:48.865Z,23.44
2017-09-30T03:19:54.985Z,23.55
2017-09-30T03:22:01.469Z,23.56
2017-09-30T03:24:08.462Z,23.33
2017-09-30T03:26:16.163Z,23.31
2017-09-30T03:28:23.442Z,23.39
2017-09-30T03:30:33.928Z,23.44
2017-09-30T03:32:40.903Z,23.28
2017-09-30T03:34:47.307Z,23.32
2017-09-30T03:36:55.982Z,23.30
2017-09-30T03:39:02.479Z,23.19
2017-09-30T03:41:09.339Z,23.36
2017-09-30T03:43:17.315Z,23.38
2017-09-30T03:45:28.546Z,23.48
2017-09-30T03:47:35.088Z,23.53
2017-09-30T03:49:41.183Z,23.51
2017-09-30T03:51:48.112Z,23.51
2017-09-30T03:53:56.160Z,23.17
2017-09-30T03:56:03.808Z,23.05
2017-09-30T03:58:12.192Z,23.10
2017-09-30T04:00:19.430Z,23.21
2017-09-30T04:02:26.470Z,23.11
2017-09-30T04:04:35.718Z,23.18
2017-09-30T04:06:44.002Z,23.31
2017-09-30T04:08:49.934Z,23.41
2017-09-30T04:10:55.488Z,23.52
2017-09-30T04:13:02.149Z,23.69
2017-09-30T04:15:10.238Z,23.73
2017-09-30T04:17:15.883Z,23.71
2017-09-30T04:19:24.259Z,23.73
2017-09-30T04:21:29.862Z,23.64
2017-09-30T04:23:36.194Z,23.47
2017-09-30T04:25:42.964Z,23.21
2017-09-30T04:27:50.255Z,23.32
2017-09-30T04:29:56.573Z,23.18
2017-09-30T04:32:03.303Z,23.06
2017-09-30T04:34:09.503Z,23.17
2017-09-30T04:36:24.397Z,23.13
2017-09-30T04:38:34.892Z,22.98
2017-09-30T04:40:41.092Z,23.10
2017-09-30T04:42:48.373Z,23.12
2017-09-30T04:44:58.565Z,23.16
2017-09-30T04:47:09.683Z,23.04
2017-09-30T04:49:17.703Z,23.15
2017-09-30T04:51:26.101Z,23.06
2017-09-30T04:53:39.081Z,22.97
2017-09-30T04:55:46.206Z,22.99
2017-09-30T04:57:52.630Z,22.99
2017-09-30T05:00:01.217Z,22.89
2017-09-30T05:02:07.059Z,23.17
2017-09-30T05:04:13.307Z,23.18
2017-09-30T05:06:20.071Z,23.05
2017-09-30T05:08:28.808Z,23.25
2017-09-30T05:10:37.021Z,23.12
2017-09-30T05:12:45.769Z,23.21
2017-09-30T05:14:54.042Z,23.19
2017-09-30T05:17:08.209Z,23.21
2017-09-30T05:19:14.674Z,22.86
2017-09-30T05:21:22.211Z,22.97
2017-09-30T05:23:28.876Z,23.10
2017-09-30T05:25:37.918Z,23.10
2017-09-30T05:27:44.640Z,23.10
2017-09-30T05:29:51.462Z,23.04
2017-09-30T05:31:57.935Z,23.07
2017-09-30T05:34:04.272Z,22.97
2017-09-30T05:36:10.594Z,22.40
2017-09-30T05:38:16.734Z,22.47
2017-09-30T05:40:23.334Z,22.62
2017-09-30T05:42:35.817Z,22.72
2017-09-30T05:44:41.781Z,22.80
2017-09-30T05:46:49.567Z,22.82
2017-09-30T05:48:57.133Z,22.86
2017-09-30T05:51:03.365Z,22.74
2017-09-30T05:53:09.363Z,22.64
2017-09-30T05:55:18.298Z,22.18
2017-09-30T05:57:25.532Z,22.54
2017-09-30T05:59:33.557Z,22.54
2017-09-30T06:01:40.678Z,22.57
2017-09-30T06:03:47.421Z,22.56
2017-09-30T06:05:58.427Z,22.63
2017-09-30T06:08:06.523Z,22.56
2017-09-30T06:10:12.107Z,22.39
2017-09-30T06:12:18.242Z,22.30
2017-09-30T06:14:24.992Z,22.41
2017-09-30T06:16:34.705Z,22.47
2017-09-30T06:18:40.987Z,22.51
2017-09-30T06:20:48.095Z,22.50
2017-09-30T06:22:54.082Z,22.46
2017-09-30T06:24:59.815Z,22.47
2017-09-30T06:27:06.503Z,22.51
2017-09-30T06:29:11.762Z,22.53
2017-09-30T06:31:20.308Z,22.66
2017-09-30T06:33:28.799Z,22.44
2017-09-30T06:35:36.675Z,22.54
2017-09-30T06:37:44.654Z,22.46
2017-09-30T06:40:01.609Z,22.55
2017-09-30T06:42:09.544Z,22.63
2017-09-30T06:44:19.243Z,22.82
2017-09-30T06:46:31.040Z,22.81
2017-09-30T06:48:48.635Z,22.80
2017-09-30T06:50:56.967Z,22.69
2017-09-30T06:53:06.942Z,22.03
2017-09-30T06:55:16.280Z,22.14
2017-09-30T06:57:22.199Z,22.22
2017-09-30T06:59:29.844Z,22.62
2017-09-30T07:01:38.531Z,21.79
2017-09-30T07:03:44.650Z,21.57
2017-09-30T07:05:53.385Z,21.88
2017-09-30T07:08:02.090Z,21.83
2017-09-30T07:10:11.785Z,22.05
2017-09-30T07:12:36.762Z,22.44
2017-09-30T07:14:42.551Z,22.05
2017-09-30T07:16:48.122Z,22.11
2017-09-30T07:18:53.784Z,22.32
2017-09-30T07:20:59.286Z,22.41
2017-09-30T07:23:06.826Z,21.90
2017-09-30T07:25:16.422Z,22.07
2017-09-30T07:27:26.850Z,21.90
2017-09-30T07:29:35.719Z,22.01
2017-09-30T07:31:43.974Z,21.95
2017-09-30T07:33:57.379Z,22.33
2017-09-30T07:36:07.644Z,22.55
2017-09-30T07:38:14.308Z,22.60
2017-09-30T07:40:20.926Z,22.59
2017-09-30T07:42:28.444Z,22.62
2017-09-30T07:44:39.841Z,22.58
2017-09-30T07:46:47.620Z,22.70
2017-09-30T07:48:53.920Z,22.70
2017-09-30T07:51:00.154Z,22.66
2017-09-30T07:53:08.562Z,22.76
2017-09-30T07:55:21.602Z,22.81
2017-09-30T07:57:28.422Z,22.90
2017-09-30T07:59:40.190Z,22.91
2017-09-30T08:01:48.319Z,23.07
2017-09-30T08:06:26.301Z,22.93
2017-09-30T08:08:34.875Z,22.95
2017-09-30T08:10:44.674Z,22.81
2017-09-30T08:12:52.974Z,22.73
2017-09-30T08:15:00.845Z,22.79
2017-09-30T08:17:09.136Z,22.72
2017-09-30T08:19:20.970Z,22.86
2017-09-30T08:21:29.387Z,22.94
2017-09-30T08:23:41.605Z,23.10
2017-09-30T08:25:49.478Z,23.66
2017-09-30T08:27:56.780Z,24.00
2017-09-30T08:30:03.948Z,24.66
2017-09-30T08:32:13.098Z,24.67
2017-09-30T08:34:23.285Z,24.56
2017-09-30T08:36:30.000Z,24.39
2017-09-30T08:38:40.256Z,24.30
2017-09-30T08:40:47.036Z,24.13
2017-09-30T08:42:54.895Z,24.35
2017-09-30T08:45:01.639Z,24.41
2017-09-30T08:47:09.808Z,24.21
2017-09-30T08:49:16.817Z,24.16
2017-09-30T08:51:24.320Z,24.02
2017-09-30T08:53:32.870Z,24.02
2017-09-30T08:55:39.924Z,24.09
2017-09-30T08:57:46.740Z,24.26
2017-09-30T08:59:56.824Z,24.32
2017-09-30T09:02:04.708Z,24.71
2017-09-30T09:04:12.174Z,24.63
2017-09-30T09:06:18.653Z,24.48
2017-09-30T09:08:25.220Z,24.30
2017-09-30T09:10:32.464Z,24.39
2017-09-30T09:12:40.028Z,24.51
2017-09-30T09:14:45.582Z,24.49
2017-09-30T09:16:54.734Z,24.46
2017-09-30T09:19:02.483Z,24.50
2017-09-30T09:21:08.251Z,24.50
2017-09-30T09:23:14.548Z,24.53
2017-09-30T09:25:21.270Z,24.65
2017-09-30T09:27:27.621Z,24.58
2017-09-30T09:29:39.427Z,24.52
2017-09-30T09:31:45.195Z,24.40
2017-09-30T09:33:50.849Z,24.24
2017-09-30T09:35:56.700Z,24.37
2017-09-30T09:38:03.217Z,24.39
2017-09-30T09:40:09.813Z,24.55
2017-09-30T09:42:17.850Z,24.47
2017-09-30T09:44:28.211Z,24.53
2017-09-30T09:46:44.398Z,24.48
2017-09-30T09:48:53.878Z,24.56
2017-09-30T09:51:00.156Z,24.71
2017-09-30T09:53:06.983Z,24.66
2017-09-30T09:55:13.095Z,24.57
2017-09-30T09:57:19.189Z,24.53
2017-09-30T09:59:25.817Z,24.53
2017-09-30T10:01:32.523Z,24.58
2017-09-30T10:03:39.024Z,24.58
2017-09-30T10:05:45.039Z,24.84
2017-09-30T10:07:50.962Z,24.93
2017-09-30T10:09:56.841Z,24.89
2017-09-30T10:12:02.342Z,24.59
2017-09-30T10:14:08.924Z,25.01
2017-09-30T10:16:15.201Z,25.04
2017-09-30T10:18:23.331Z,25.20
2017-09-30T10:20:30.096Z,24.92
2017-09-30T10:22:36.232Z,24.95
2017-09-30T10:24:42.145Z,25.05
2017-09-30T10:26:47.681Z,24.73
2017-09-30T10:28:53.284Z,24.84
2017-09-30T10:30:59.274Z,24.97
2017-09-30T10:33:05.018Z,24.87
2017-09-30T10:35:12.109Z,24.94
2017-09-30T10:37:18.452Z,24.79
2017-09-30T10:39:26.396Z,24.89
2017-09-30T10:41:35.566Z,24.81
2017-09-30T10:43:42.574Z,24.74
2017-09-30T10:45:49.031Z,24.98
2017-09-30T10:47:57.266Z,24.97
2017-09-30T10:50:03.460Z,25.09
2017-09-30T10:52:13.295Z,25.05
2017-09-30T10:54:20.137Z,25.06
2017-09-30T10:56:33.332Z,25.10
2017-09-30T10:58:40.900Z,25.00
2017-09-30T11:00:49.767Z,25.20
2017-09-30T11:02:56.608Z,25.27
2017-09-30T11:05:06.181Z,25.18
2017-09-30T11:07:13.965Z,25.53
2017-09-30T11:09:22.207Z,25.40
2017-09-30T11:11:28.937Z,25.34
2017-09-30T11:13:35.069Z,25.50
2017-09-30T11:15:42.598Z,25.33
2017-09-30T11:17:48.417Z,25.34
2017-09-30T11:19:55.464Z,25.55
2017-09-30T11:22:01.564Z,25.22
2017-09-30T11:24:08.077Z,25.24
2017-09-30T11:26:14.450Z,25.22
2017-09-30T11:28:32.408Z,25.46
2017-09-30T11:30:40.209Z,25.15
2017-09-30T11:32:50.354Z,25.13
2017-09-30T11:35:00.305Z,25.19
2017-09-30T11:37:13.454Z,25.24
2017-09-30T11:39:32.015Z,25.38
2017-09-30T11:41:49.741Z,25.15
2017-09-30T11:44:05.353Z,25.00
2017-09-30T11:46:12.432Z,24.98
2017-09-30T11:48:28.275Z,25.04
2017-09-30T11:50:39.586Z,25.13
2017-09-30T11:52:47.592Z,25.06
2017-09-30T11:54:56.270Z,25.18
2017-09-30T11:57:02.379Z,25.17
2017-09-30T11:59:15.023Z,25.24
2017-09-30T12:01:23.610Z,25.04
2017-09-30T12:03:31.379Z,25.02
2017-09-30T12:05:38.442Z,25.24
2017-09-30T12:07:48.415Z,25.18
2017-09-30T12:10:01.917Z,25.07
2017-09-30T12:12:10.857Z,25.09
2017-09-30T12:14:21.508Z,24.88
2017-09-30T12:16:32.895Z,24.88
2017-09-30T12:18:40.680Z,24.82
2017-09-30T12:20:47.544Z,24.94
2017-09-30T12:22:53.256Z,24.73
2017-09-30T12:25:01.176Z,24.81
2017-09-30T12:27:06.987Z,24.57
2017-09-30T12:29:16.250Z,24.65
2017-09-30T12:31:26.485Z,24.66
2017-09-30T12:34:00.736Z,24.78
2017-09-30T12:36:14.635Z,24.73
2017-09-30T12:38:31.673Z,24.88
2017-09-30T12:40:43.572Z,24.91
2017-09-30T12:42:56.040Z,24.94
2017-09-30T12:45:05.568Z,24.77
2017-09-30T12:47:17.927Z,24.70
2017-09-30T12:49:29.947Z,24.72
2017-09-30T12:51:40.905Z,24.95
2017-09-30T12:53:51.261Z,24.95
2017-09-30T12:55:58.372Z,24.94
2017-09-30T12:58:07.725Z,24.94
2017-09-30T13:00:14.659Z,24.77
2017-09-30T13:02:21.302Z,24.99
2017-09-30T13:04:27.160Z,25.11
2017-09-30T13:06:39.992Z,25.01
2017-09-30T13:08:47.214Z,25.15
2017-09-30T13:10:53.094Z,25.06
2017-09-30T13:12:59.553Z,25.20
2017-09-30T13:15:10.011Z,25.31
2017-09-30T13:17:18.082Z,25.50
2017-09-30T13:19:25.648Z,25.75
2017-09-30T13:21:42.211Z,25.40
2017-09-30T13:23:49.733Z,25.84
2017-09-30T13:25:59.646Z,25.98
2017-09-30T13:28:13.163Z,25.63
2017-09-30T13:30:21.180Z,25.88
2017-09-30T13:32:30.957Z,25.77
2017-09-30T13:34:39.559Z,25.82
2017-09-30T13:37:10.368Z,25.96
2017-09-30T13:39:27.607Z,26.08
2017-09-30T13:41:46.031Z,25.97
2017-09-30T13:44:01.976Z,26.00
2017-09-30T13:46:08.858Z,26.09
2017-09-30T13:48:32.178Z,25.97
2017-09-30T13:50:44.108Z,26.09
2017-09-30T13:52:51.618Z,26.24
2017-09-30T13:55:02.671Z,26.34
2017-09-30T13:57:15.436Z,26.22
2017-09-30T13:59:28.539Z,26.19
2017-09-30T14:03:58.258Z,26.39
2017-09-30T14:06:13.685Z,26.09
2017-09-30T14:08:21.437Z,26.10
2017-09-30T14:10:30.618Z,25.80
2017-09-30T14:12:43.194Z,25.72
2017-09-30T14:14:56.784Z,25.96
2017-09-30T14:17:03.202Z,25.89
2017-09-30T14:19:10.958Z,25.58
2017-09-30T14:21:21.993Z,25.85
2017-09-30T14:23:44.135Z,25.85
2017-09-30T14:26:00.167Z,25.86
2017-09-30T14:28:06.987Z,25.99
2017-09-30T14:30:22.693Z,25.92
2017-09-30T14:34:53.251Z,25.67
2017-09-30T14:37:05.021Z,25.74
2017-09-30T14:39:12.045Z,25.40
2017-09-30T14:41:22.907Z,25.36
2017-09-30T14:43:39.027Z,25.44
2017-09-30T14:45:46.542Z,25.33
2017-09-30T14:47:53.229Z,25.25
2017-09-30T14:50:04.041Z,25.32
2017-09-30T14:52:11.334Z,25.52
2017-09-30T14:54:19.149Z,25.65
2017-09-30T14:56:25.729Z,25.93
2017-09-30T14:58:33.044Z,25.73
2017-09-30T15:00:43.300Z,25.87
2017-09-30T15:02:54.816Z,25.75
2017-09-30T15:05:09.733Z,25.73
2017-09-30T15:07:17.880Z,25.57
2017-09-30T15:09:28.947Z,25.65
2017-09-30T15:11:35.374Z,25.65
2017-09-30T15:13:46.309Z,25.54
2017-09-30T15:15:52.439Z,25.35
2017-09-30T15:17:58.021Z,25.35
2017-09-30T15:20:04.831Z,25.33
2017-09-30T15:22:15.584Z,25.45
2017-09-30T15:24:26.170Z,25.38
2017-09-30T15:26:33.813Z,25.57
2017-09-30T15:28:41.449Z,25.42
2017-09-30T15:30:49.880Z,25.38
2017-09-30T15:32:58.034Z,25.45
2017-09-30T15:35:05.629Z,25.47
2017-09-30T15:37:14.815Z,25.41
2017-09-30T15:39:23.983Z,25.51
2017-09-30T15:41:33.604Z,25.56
2017-09-30T15:43:43.997Z,25.51
2017-09-30T15:45:51.847Z,25.74
2017-09-30T15:48:00.868Z,25.65
2017-09-30T15:50:11.632Z,25.58
2017-09-30T15:54:38.022Z,25.65
2017-09-30T15:56:45.332Z,25.46
2017-09-30T15:58:53.630Z,25.46
2017-09-30T16:01:00.233Z,25.32
2017-09-30T16:03:10.608Z,25.73
2017-09-30T16:05:19.413Z,25.54
2017-09-30T16:07:31.430Z,25.56
2017-09-30T16:09:38.724Z,25.64
2017-09-30T16:11:46.515Z,25.67
2017-09-30T16:13:52.803Z,25.72
2017-09-30T16:15:58.960Z,25.80
2017-09-30T16:18:07.194Z,25.69
2017-09-30T16:20:13.205Z,25.45
2017-09-30T16:22:19.384Z,24.97
2017-09-30T16:24:29.489Z,25.09
2017-09-30T16:26:41.575Z,24.99
2017-09-30T16:28:48.895Z,24.83
2017-09-30T16:30:56.095Z,24.81
2017-09-30T16:33:03.720Z,24.71
2017-09-30T16:35:10.587Z,24.62
2017-09-30T16:37:21.431Z,24.34
2017-09-30T16:39:36.699Z,24.42
2017-09-30T16:41:43.323Z,24.46
2017-09-30T16:43:52.044Z,24.56
2017-09-30T16:45:58.981Z,24.50
2017-09-30T16:48:06.526Z,24.26
2017-09-30T16:50:16.120Z,24.43
2017-09-30T16:52:23.084Z,24.19
2017-09-30T16:54:29.182Z,24.21
2017-09-30T16:56:42.875Z,24.49
2017-09-30T16:58:52.406Z,24.35
2017-09-30T17:01:00.577Z,24.18
2017-09-30T17:03:07.680Z,24.02
2017-09-30T17:05:15.145Z,24.16
2017-09-30T17:07:22.737Z,24.50
2017-09-30T17:09:29.688Z,24.52
2017-09-30T17:11:37.600Z,24.57
2017-09-30T17:13:43.699Z,24.53
2017-09-30T17:15:50.085Z,24.56
2017-09-30T17:17:55.929Z,24.61
2017-09-30T17:20:02.823Z,24.71
2017-09-30T17:22:09.894Z,24.81
2017-09-30T17:24:24.290Z,24.77
2017-09-30T17:26:33.032Z,24.72
2017-09-30T17:28:41.456Z,24.70
2017-09-30T17:30:48.397Z,24.59
2017-09-30T17:43:58.150Z,24.38
2017-09-30T17:46:05.784Z,24.51
2017-09-30T17:48:16.249Z,24.48
2017-09-30T17:52:59.848Z,24.39
2017-09-30T17:55:05.860Z,24.43
2017-09-30T17:57:14.391Z,24.45
2017-09-30T17:59:21.432Z,24.40
2017-09-30T18:01:28.524Z,24.34
2017-09-30T18:03:38.001Z,24.39
2017-09-30T18:05:48.732Z,24.40
2017-09-30T18:07:58.771Z,24.42
2017-09-30T18:10:08.972Z,24.48
2017-09-30T18:12:17.248Z,24.76
2017-09-30T18:14:27.908Z,24.77
2017-09-30T18:16:39.731Z,24.81
2017-09-30T18:18:49.335Z,24.61
2017-09-30T18:20:56.668Z,24.66
2017-09-30T18:23:03.784Z,24.82
2017-09-30T18:25:12.430Z,24.71
2017-09-30T18:27:21.655Z,24.86
2017-09-30T18:29:42.673Z,25.12
2017-09-30T18:32:03.263Z,25.22
2017-09-30T18:34:19.550Z,24.86
2017-09-30T18:36:35.890Z,24.67
2017-09-30T18:38:53.269Z,24.53
2017-09-30T18:41:06.528Z,24.47
2017-09-30T18:43:25.512Z,24.29
2017-09-30T18:46:19.418Z,24.35
2017-09-30T18:48:59.660Z,24.30
2017-09-30T18:56:38.217Z,24.37
2017-09-30T18:58:46.700Z,24.37
2017-09-30T19:00:53.723Z,24.25
2017-09-30T19:03:01.937Z,24.30
2017-09-30T19:05:11.525Z,24.26
2017-09-30T19:07:17.955Z,24.29
2017-09-30T19:09:30.604Z,24.19
2017-09-30T19:11:42.035Z,24.04
2017-09-30T19:13:50.471Z,24.01
2017-09-30T19:16:01.340Z,24.00
2017-09-30T19:18:13.657Z,24.08
2017-09-30T19:20:26.771Z,23.73
2017-09-30T19:22:50.831Z,23.83
2017-09-30T19:24:58.336Z,23.75
2017-09-30T19:27:07.084Z,23.65
2017-09-30T19:29:15.778Z,23.92
2017-09-30T19:31:34.573Z,24.21
2017-09-30T19:33:44.732Z,24.40
2017-09-30T19:35:53.485Z,24.57
2017-09-30T19:38:02.671Z,24.69
2017-09-30T19:40:13.545Z,24.59
2017-09-30T19:42:23.494Z,24.64
2017-09-30T19:44:32.032Z,24.80
2017-09-30T19:46:39.167Z,24.74
2017-09-30T19:48:49.692Z,24.62
2017-09-30T19:50:55.534Z,24.78
2017-09-30T19:53:01.794Z,24.74
2017-09-30T19:55:09.973Z,24.69
2017-09-30T19:57:15.964Z,24.77
2017-09-30T19:59:23.053Z,24.64
2017-09-30T20:01:29.412Z,24.70
2017-09-30T20:03:37.691Z,24.74
2017-09-30T20:05:45.004Z,24.79
2017-09-30T20:07:50.905Z,24.67
2017-09-30T20:09:56.893Z,24.57
2017-09-30T20:12:02.796Z,24.66
2017-09-30T20:14:09.273Z,24.19
2017-09-30T20:16:15.469Z,23.78
2017-09-30T20:18:22.496Z,23.42
2017-09-30T20:20:30.247Z,23.48
2017-09-30T20:22:37.267Z,23.38
2017-09-30T20:24:43.493Z,23.20
2017-09-30T20:26:53.000Z,23.17
2017-09-30T20:28:59.803Z,23.13
2017-09-30T20:31:11.628Z,23.18
2017-09-30T20:33:19.499Z,23.08
2017-09-30T20:35:28.304Z,23.05
2017-09-30T20:37:37.361Z,22.98
2017-09-30T20:39:50.696Z,23.09
2017-09-30T20:41:59.084Z,22.76
2017-09-30T20:44:06.588Z,22.69
2017-09-30T20:46:17.286Z,22.70
2017-09-30T20:48:25.028Z,22.59
2017-09-30T20:50:32.025Z,22.69
2017-09-30T20:52:41.482Z,22.58
2017-09-30T20:54:48.699Z,22.60
2017-09-30T20:56:57.930Z,22.70
2017-09-30T20:59:05.357Z,22.72
2017-09-30T21:01:15.522Z,22.68
2017-09-30T21:03:22.764Z,22.77
2017-09-30T21:05:34.451Z,22.75
2017-09-30T21:07:41.892Z,22.73
2017-09-30T21:09:50.153Z,22.65
2017-09-30T21:11:57.533Z,22.56
2017-09-30T21:14:04.298Z,22.63
2017-09-30T21:16:12.315Z,22.72
2017-09-30T21:18:18.895Z,22.65
2017-09-30T21:20:25.365Z,22.76
2017-09-30T21:22:32.066Z,22.76
2017-09-30T21:24:45.415Z,22.45
2017-09-30T21:26:53.421Z,22.62
2017-09-30T21:29:00.303Z,22.66
2017-09-30T21:31:11.343Z,22.61
2017-09-30T21:33:18.691Z,22.46
2017-09-30T21:35:28.497Z,22.58
2017-09-30T21:37:38.370Z,21.79
2017-09-30T21:39:45.145Z,22.07
2017-09-30T21:41:53.420Z,22.34
2017-09-30T21:44:05.465Z,22.35
2017-09-30T21:46:11.734Z,22.44
2017-09-30T21:48:19.338Z,22.41
2017-09-30T21:50:26.894Z,22.32
2017-09-30T21:52:35.232Z,22.40
2017-09-30T21:54:42.290Z,22.50
2017-09-30T21:56:48.631Z,22.49
2017-09-30T21:58:59.665Z,22.42
2017-09-30T22:01:12.588Z,22.42
2017-09-30T22:03:21.974Z,22.19
2017-09-30T22:05:30.161Z,22.30
2017-09-30T22:07:46.090Z,22.36
2017-09-30T22:10:12.380Z,22.36
2017-09-30T22:12:18.949Z,22.10
2017-09-30T22:14:27.312Z,22.03
2017-09-30T22:16:34.436Z,22.16
2017-09-30T22:18:39.929Z,21.93
2017-09-30T22:20:46.758Z,22.03
2017-09-30T22:22:53.479Z,22.06
2017-09-30T22:24:59.891Z,22.15
2017-09-30T22:27:05.490Z,21.87
2017-09-30T22:29:12.613Z,22.14
2017-09-30T22:31:18.924Z,22.15
2017-09-30T22:33:25.625Z,22.11
2017-09-30T22:35:32.785Z,21.98
2017-09-30T22:37:42.321Z,21.97
2017-09-30T22:39:48.262Z,22.22
2017-09-30T22:41:54.901Z,22.00
2017-09-30T22:44:01.266Z,22.03
2017-09-30T22:46:07.436Z,22.20
2017-09-30T22:48:13.818Z,22.67
2017-09-30T22:50:20.603Z,22.83
2017-09-30T22:52:28.212Z,22.90
2017-09-30T22:54:35.232Z,22.96
2017-09-30T22:56:42.683Z,23.14
2017-09-30T22:58:51.676Z,23.15
2017-09-30T23:00:58.211Z,23.32
2017-09-30T23:03:05.720Z,23.30
2017-09-30T23:05:13.637Z,23.32
2017-09-30T23:07:22.647Z,23.19
2017-09-30T23:09:33.145Z,23.31
2017-09-30T23:11:41.355Z,23.35
2017-09-30T23:13:54.360Z,23.36
2017-09-30T23:16:04.670Z,23.34
2017-09-30T23:18:11.049Z,23.22
2017-09-30T23:20:17.780Z,23.12
2017-09-30T23:22:23.733Z,23.33
2017-09-30T23:26:54.730Z,23.32
2017-09-30T23:29:04.006Z,23.37
2017-09-30T23:31:11.779Z,23.39
2017-09-30T23:33:21.206Z,23.42
2017-09-30T23:35:28.232Z,23.33
2017-09-30T23:37:34.198Z,23.30
2017-09-30T23:39:40.711Z,23.35
2017-09-30T23:41:47.323Z,23.03
2017-09-30T23:43:56.700Z,22.67
2017-09-30T23:46:02.396Z,22.61
2017-09-30T23:48:25.588Z,22.59
2017-09-30T23:50:32.384Z,22.51
2017-09-30T23:52:41.330Z,22.63
2017-09-30T23:54:52.407Z,22.54
2017-09-30T23:56:59.112Z,22.49
2017-09-30T23:59:06.922Z,22.34
